createdAt,value
2022-12-27T00:00:25.478Z,66.54
2022-12-27T00:03:10.233Z,67.03
2022-12-27T00:05:54.877Z,68.64
2022-12-27T00:08:39.676Z,68.07
2022-12-27T00:11:24.498Z,67.31
2022-12-27T00:14:09.207Z,67.09
2022-12-27T00:16:53.963Z,66.24
2022-12-27T00:19:38.844Z,66.35
2022-12-27T00:22:23.662Z,66.28
2022-12-27T00:25:08.384Z,66.52
2022-12-27T00:27:53.182Z,65.31
2022-12-27T00:30:37.864Z,65.21
2022-12-27T00:33:22.767Z,64.46
2022-12-27T00:36:07.322Z,63.93
2022-12-27T00:38:52.128Z,63.86
2022-12-27T00:41:37.039Z,65.01
2022-12-27T00:44:21.808Z,65.03
2022-12-27T00:47:06.552Z,65.19
2022-12-27T00:49:51.439Z,64.92
2022-12-27T00:52:36.278Z,64.96
2022-12-27T00:55:21.003Z,65.86
2022-12-27T00:58:05.987Z,65.86
2022-12-27T01:00:50.751Z,65.67
2022-12-27T01:03:36.838Z,65.70
2022-12-27T01:06:21.963Z,65.34
2022-12-27T01:09:06.661Z,65.18
2022-12-27T01:11:51.466Z,65.47
2022-12-27T01:14:36.281Z,65.38
2022-12-27T01:17:21.093Z,64.90
2022-12-27T01:20:05.830Z,65.31
2022-12-27T01:22:50.677Z,65.51
2022-12-27T01:25:35.398Z,65.35
2022-12-27T01:28:20.223Z,65.62
2022-12-27T01:31:05.041Z,65.36
2022-12-27T01:33:49.876Z,65.10
2022-12-27T01:36:34.518Z,64.79
2022-12-27T01:39:19.230Z,64.86
2022-12-27T01:42:03.975Z,65.02
2022-12-27T01:44:48.767Z,65.59
2022-12-27T01:47:33.562Z,65.73
2022-12-27T01:50:18.285Z,65.65
2022-12-27T01:53:03.196Z,65.81
2022-12-27T01:55:47.855Z,65.39
2022-12-27T01:58:32.599Z,65.40
2022-12-27T02:01:17.307Z,65.38
2022-12-27T02:04:02.673Z,65.05
2022-12-27T02:06:47.397Z,65.11
2022-12-27T02:09:32.269Z,65.07
2022-12-27T02:12:17.038Z,64.68
2022-12-27T02:15:02.761Z,65.20
2022-12-27T02:17:47.785Z,65.68
2022-12-27T02:20:32.479Z,65.78
2022-12-27T02:23:17.345Z,65.24
2022-12-27T02:26:02.022Z,66.51
2022-12-27T02:28:46.816Z,66.65
2022-12-27T02:31:31.529Z,66.50
2022-12-27T02:34:16.305Z,66.22
2022-12-27T02:37:01.079Z,65.94
2022-12-27T02:39:45.878Z,66.04
2022-12-27T02:42:30.686Z,65.97
2022-12-27T02:45:15.393Z,65.73
2022-12-27T02:48:00.127Z,65.88
2022-12-27T02:50:44.906Z,66.68
2022-12-27T02:53:29.605Z,66.55
2022-12-27T02:56:14.247Z,66.35
2022-12-27T02:58:58.935Z,65.70
2022-12-27T03:01:43.764Z,65.86
2022-12-27T03:04:29.015Z,65.70
2022-12-27T03:07:13.727Z,65.56
2022-12-27T03:09:58.488Z,66.18
2022-12-27T03:12:43.254Z,66.67
2022-12-27T03:15:33.253Z,66.39
2022-12-27T03:18:18.538Z,66.09
2022-12-27T03:21:03.307Z,65.84
2022-12-27T03:23:48.110Z,65.56
2022-12-27T03:26:33.039Z,65.58
2022-12-27T03:29:17.691Z,65.63
2022-12-27T03:32:02.442Z,65.43
2022-12-27T03:34:46.941Z,65.21
2022-12-27T03:37:31.766Z,65.45
2022-12-27T03:40:16.539Z,65.48
2022-12-27T03:43:01.276Z,65.21
2022-12-27T03:45:45.879Z,64.94
2022-12-27T03:48:30.727Z,64.93
2022-12-27T03:51:15.490Z,65.56
2022-12-27T03:54:00.255Z,65.76
2022-12-27T03:56:45.089Z,65.37
2022-12-27T03:59:29.912Z,65.16
2022-12-27T04:02:15.057Z,65.53
2022-12-27T04:05:00.023Z,64.71
2022-12-27T04:07:44.807Z,65.16
2022-12-27T04:10:29.389Z,65.27
2022-12-27T04:13:14.210Z,65.43
2022-12-27T04:15:59.075Z,64.93
2022-12-27T04:18:43.917Z,64.57
2022-12-27T04:21:28.639Z,65.38
2022-12-27T04:24:13.325Z,65.87
2022-12-27T04:26:58.194Z,65.57
2022-12-27T04:29:42.987Z,65.34
2022-12-27T04:32:27.865Z,64.63
2022-12-27T04:35:12.559Z,64.25
2022-12-27T04:37:57.290Z,64.70
2022-12-27T04:40:41.955Z,65.01
2022-12-27T04:43:26.692Z,64.84
2022-12-27T04:46:11.503Z,64.72
2022-12-27T04:48:56.173Z,64.42
2022-12-27T04:51:40.924Z,64.70
2022-12-27T04:54:25.592Z,64.18
2022-12-27T04:57:10.350Z,63.32
2022-12-27T04:59:55.025Z,63.60
2022-12-27T05:02:39.921Z,64.07
2022-12-27T05:05:24.947Z,64.29
2022-12-27T05:08:09.839Z,63.68
2022-12-27T05:10:54.452Z,63.60
2022-12-27T05:13:39.305Z,63.72
2022-12-27T05:16:24.015Z,63.69
2022-12-27T05:19:08.846Z,63.64
2022-12-27T05:21:53.710Z,63.91
2022-12-27T05:24:38.497Z,63.75
2022-12-27T05:27:23.433Z,63.85
2022-12-27T05:30:08.057Z,64.05
2022-12-27T05:32:52.983Z,63.31
2022-12-27T05:35:37.760Z,63.13
2022-12-27T05:38:22.592Z,63.35
2022-12-27T05:41:07.196Z,63.68
2022-12-27T05:43:51.829Z,63.61
2022-12-27T05:46:36.790Z,63.23
2022-12-27T05:49:22.007Z,63.68
2022-12-27T05:52:06.739Z,63.38
2022-12-27T05:54:51.434Z,63.77
2022-12-27T05:57:36.135Z,63.47
2022-12-27T06:00:20.778Z,63.35
2022-12-27T06:03:05.753Z,63.31
2022-12-27T06:05:50.845Z,63.40
2022-12-27T06:08:35.660Z,63.56
2022-12-27T06:11:20.345Z,63.63
2022-12-27T06:14:05.103Z,63.44
2022-12-27T06:16:49.839Z,63.57
2022-12-27T06:19:34.313Z,62.89
2022-12-27T06:22:19.021Z,63.06
2022-12-27T06:25:03.757Z,62.45
2022-12-27T06:27:48.486Z,62.53
2022-12-27T06:30:36.262Z,62.06
2022-12-27T06:33:21.551Z,61.87
2022-12-27T06:36:06.285Z,62.26
2022-12-27T06:38:51.165Z,61.96
2022-12-27T06:41:35.985Z,61.67
2022-12-27T06:44:20.743Z,62.54
2022-12-27T06:47:05.581Z,62.08
2022-12-27T06:49:50.357Z,62.36
2022-12-27T06:52:35.116Z,61.85
2022-12-27T06:55:19.756Z,61.28
2022-12-27T06:58:04.634Z,61.38
2022-12-27T07:00:49.387Z,61.05
2022-12-27T07:03:34.392Z,60.97
2022-12-27T07:06:19.078Z,61.13
2022-12-27T07:09:03.869Z,61.11
2022-12-27T07:11:48.809Z,61.69
2022-12-27T07:14:33.510Z,60.95
2022-12-27T07:17:18.400Z,60.56
2022-12-27T07:20:03.068Z,61.03
2022-12-27T07:22:47.877Z,60.20
2022-12-27T07:25:32.684Z,60.47
2022-12-27T07:28:17.508Z,60.36
2022-12-27T07:31:02.218Z,60.22
2022-12-27T07:33:47.100Z,59.98
2022-12-27T07:36:31.822Z,60.01
2022-12-27T07:39:16.469Z,60.94
2022-12-27T07:42:06.407Z,60.21
2022-12-27T07:44:53.154Z,61.23
2022-12-27T07:47:37.822Z,60.48
2022-12-27T07:50:22.690Z,60.54
2022-12-27T07:53:07.389Z,60.33
2022-12-27T07:55:52.157Z,61.06
2022-12-27T07:58:36.953Z,61.43
2022-12-27T08:01:21.774Z,60.69
2022-12-27T08:04:06.893Z,61.76
2022-12-27T08:06:51.712Z,61.64
2022-12-27T08:09:36.545Z,61.65
2022-12-27T08:12:21.221Z,60.94
2022-12-27T08:15:06.211Z,60.96
2022-12-27T08:17:50.969Z,60.96
2022-12-27T08:20:35.615Z,60.51
2022-12-27T08:23:20.194Z,59.62
2022-12-27T08:26:04.924Z,60.10
2022-12-27T08:28:49.583Z,59.01
2022-12-27T08:31:34.326Z,58.74
2022-12-27T08:34:19.222Z,58.40
2022-12-27T08:37:03.983Z,58.03
2022-12-27T08:39:48.721Z,58.39
2022-12-27T08:42:33.448Z,58.52
2022-12-27T08:45:18.379Z,56.75
2022-12-27T08:48:03.105Z,57.31
2022-12-27T08:50:47.993Z,55.84
2022-12-27T08:53:32.640Z,56.66
2022-12-27T08:56:17.361Z,55.24
2022-12-27T08:59:02.126Z,54.17
2022-12-27T09:01:47.044Z,54.33
2022-12-27T09:04:32.155Z,53.47
2022-12-27T09:07:16.844Z,53.67
2022-12-27T09:10:01.633Z,58.13
2022-12-27T09:12:46.372Z,54.62
2022-12-27T09:15:31.387Z,56.31
2022-12-27T09:18:15.930Z,55.17
2022-12-27T09:21:00.739Z,57.04
2022-12-27T09:23:45.340Z,57.29
2022-12-27T09:26:30.190Z,57.42
2022-12-27T09:29:14.811Z,56.97
2022-12-27T09:31:59.653Z,55.85
2022-12-27T09:34:44.277Z,54.81
2022-12-27T09:37:29.050Z,53.82
2022-12-27T09:40:13.988Z,52.35
2022-12-27T09:43:12.511Z,54.47
2022-12-27T09:46:01.181Z,53.87
2022-12-27T09:48:45.831Z,54.49
2022-12-27T09:51:30.719Z,53.48
2022-12-27T09:54:15.509Z,52.71
2022-12-27T09:57:19.346Z,54.06
2022-12-27T10:00:05.111Z,56.47
2022-12-27T10:02:49.844Z,56.28
2022-12-27T10:05:35.164Z,55.95
2022-12-27T10:08:20.253Z,56.34
2022-12-27T10:11:05.056Z,58.45
2022-12-27T10:13:49.821Z,57.27
2022-12-27T10:16:34.502Z,54.31
2022-12-27T10:19:19.460Z,55.02
2022-12-27T10:22:04.256Z,53.75
2022-12-27T10:24:49.068Z,51.56
2022-12-27T10:27:33.737Z,52.19
2022-12-27T10:30:18.395Z,52.05
2022-12-27T10:33:03.084Z,52.41
2022-12-27T10:35:47.913Z,50.75
2022-12-27T10:38:32.681Z,51.97
2022-12-27T10:41:17.510Z,50.55
2022-12-27T10:44:02.128Z,48.42
2022-12-27T10:46:46.895Z,49.09
2022-12-27T10:49:31.754Z,48.41
2022-12-27T10:52:16.406Z,49.70
2022-12-27T10:55:01.275Z,49.81
2022-12-27T10:57:45.994Z,49.22
2022-12-27T11:00:30.757Z,49.73
2022-12-27T11:03:15.375Z,50.09
2022-12-27T11:06:00.358Z,52.03
2022-12-27T11:08:45.198Z,51.36
2022-12-27T11:11:29.912Z,51.69
2022-12-27T11:14:14.605Z,50.54
2022-12-27T11:16:59.301Z,50.99
2022-12-27T11:19:44.066Z,50.51
2022-12-27T11:22:28.876Z,51.69
2022-12-27T11:25:13.570Z,51.65
2022-12-27T11:27:58.333Z,52.04
2022-12-27T11:30:43.135Z,54.11
2022-12-27T11:33:27.880Z,53.95
2022-12-27T11:36:12.728Z,53.16
2022-12-27T11:38:57.575Z,55.09
2022-12-27T11:41:42.202Z,55.14
2022-12-27T11:44:27.079Z,56.57
2022-12-27T11:47:11.907Z,58.24
2022-12-27T11:49:57.108Z,57.37
2022-12-27T11:52:41.818Z,58.76
2022-12-27T11:55:26.520Z,57.41
2022-12-27T11:58:11.225Z,57.11
2022-12-27T12:01:02.024Z,55.97
2022-12-27T12:03:50.419Z,55.38
2022-12-27T12:06:35.299Z,55.25
2022-12-27T12:09:19.969Z,53.19
2022-12-27T12:12:04.770Z,54.84
2022-12-27T12:14:49.337Z,54.10
2022-12-27T12:17:36.179Z,54.50
2022-12-27T12:20:21.417Z,54.95
2022-12-27T12:23:06.188Z,57.27
2022-12-27T12:25:50.980Z,57.45
2022-12-27T12:31:40.719Z,59.53
2022-12-27T12:34:25.361Z,59.13
2022-12-27T12:37:10.447Z,60.16
2022-12-27T12:39:55.276Z,60.19
2022-12-27T12:42:40.005Z,60.87
2022-12-27T12:45:24.815Z,59.84
2022-12-27T12:48:09.356Z,59.16
2022-12-27T12:50:54.174Z,59.31
2022-12-27T12:53:38.883Z,59.13
2022-12-27T12:56:23.709Z,60.84
2022-12-27T12:59:08.471Z,60.25
2022-12-27T13:01:53.259Z,60.00
2022-12-27T13:04:38.384Z,60.54
2022-12-27T13:07:23.178Z,60.89
2022-12-27T13:10:07.879Z,60.49
2022-12-27T13:12:53.218Z,60.65
2022-12-27T13:15:38.395Z,60.95
2022-12-27T13:18:29.941Z,60.47
2022-12-27T13:21:15.325Z,60.20
2022-12-27T13:24:00.050Z,60.45
2022-12-27T13:26:44.810Z,60.51
2022-12-27T13:29:29.643Z,59.95
2022-12-27T13:32:14.461Z,60.31
2022-12-27T13:34:59.204Z,59.97
2022-12-27T13:37:43.961Z,59.41
2022-12-27T13:40:28.871Z,59.29
2022-12-27T13:43:13.829Z,57.21
2022-12-27T13:45:58.625Z,53.82
2022-12-27T13:48:43.417Z,52.85
2022-12-27T13:51:28.284Z,51.82
2022-12-27T13:54:13.088Z,52.15
2022-12-27T13:56:57.682Z,52.55
2022-12-27T13:59:42.503Z,52.17
2022-12-27T14:02:27.534Z,52.36
2022-12-27T14:05:12.693Z,51.83
2022-12-27T14:07:57.515Z,49.62
2022-12-27T14:10:42.346Z,49.36
2022-12-27T14:13:27.097Z,51.08
2022-12-27T14:16:11.867Z,54.08
2022-12-27T14:18:56.631Z,53.71
2022-12-27T14:21:41.484Z,53.84
2022-12-27T14:24:26.249Z,55.02
2022-12-27T14:27:10.960Z,56.22
2022-12-27T14:29:55.734Z,56.92
2022-12-27T14:32:40.423Z,55.51
2022-12-27T14:35:25.142Z,55.46
2022-12-27T14:38:09.938Z,54.97
2022-12-27T14:40:54.549Z,56.21
2022-12-27T14:43:39.347Z,58.58
2022-12-27T14:46:24.109Z,58.82
2022-12-27T14:49:08.799Z,58.79
2022-12-27T14:52:04.480Z,58.74
2022-12-27T14:54:50.705Z,59.09
2022-12-27T14:57:35.529Z,59.22
2022-12-27T15:00:20.384Z,55.91
2022-12-27T15:03:05.156Z,55.94
2022-12-27T15:05:49.948Z,55.53
2022-12-27T15:08:34.770Z,51.84
2022-12-27T15:11:20.087Z,55.74
2022-12-27T15:14:05.378Z,56.07
2022-12-27T15:16:50.097Z,52.91
2022-12-27T15:19:34.874Z,51.63
2022-12-27T15:22:19.586Z,51.51
2022-12-27T15:25:04.412Z,50.77
2022-12-27T15:27:49.574Z,50.99
2022-12-27T15:30:34.619Z,50.93
2022-12-27T15:33:19.281Z,49.85
2022-12-27T15:36:04.146Z,49.03
2022-12-27T15:38:53.461Z,49.74
2022-12-27T15:41:39.084Z,48.12
2022-12-27T15:44:23.855Z,47.52
2022-12-27T15:47:08.767Z,47.64
2022-12-27T15:49:53.961Z,49.59
2022-12-27T15:52:38.830Z,50.44
2022-12-27T15:55:23.622Z,52.17
2022-12-27T15:58:08.620Z,52.53
2022-12-27T16:00:53.374Z,53.01
2022-12-27T16:03:38.295Z,53.70
2022-12-27T16:06:22.932Z,53.81
2022-12-27T16:09:07.908Z,53.64
2022-12-27T16:11:52.708Z,54.40
2022-12-27T16:14:37.533Z,55.03
2022-12-27T16:17:22.382Z,55.67
2022-12-27T16:20:07.143Z,55.59
2022-12-27T16:22:51.991Z,56.86
2022-12-27T16:25:36.701Z,56.92
2022-12-27T16:28:21.460Z,56.77
2022-12-27T16:31:06.327Z,57.42
2022-12-27T16:33:51.052Z,57.19
2022-12-27T16:36:35.742Z,57.12
2022-12-27T16:39:20.613Z,56.70
2022-12-27T16:42:05.798Z,56.40
2022-12-27T16:44:50.542Z,55.62
2022-12-27T16:47:35.310Z,54.27
2022-12-27T16:50:20.118Z,53.85
2022-12-27T16:53:04.903Z,52.99
2022-12-27T16:55:49.593Z,53.63
2022-12-27T16:58:34.335Z,54.13
2022-12-27T17:01:19.203Z,53.80
2022-12-27T17:04:04.433Z,53.43
2022-12-27T17:06:49.182Z,53.45
2022-12-27T17:09:34.290Z,52.68
2022-12-27T17:12:19.478Z,53.01
2022-12-27T17:15:04.175Z,52.87
2022-12-27T17:17:49.021Z,52.72
2022-12-27T17:20:33.845Z,53.45
2022-12-27T17:23:18.623Z,53.23
2022-12-27T17:26:03.280Z,53.62
2022-12-27T17:28:48.061Z,53.56
2022-12-27T17:31:32.943Z,53.36
2022-12-27T17:34:17.801Z,52.76
2022-12-27T17:37:02.496Z,52.76
2022-12-27T17:39:47.241Z,53.21
2022-12-27T17:42:32.079Z,52.99
2022-12-27T17:45:16.991Z,52.88
2022-12-27T17:48:01.900Z,53.17
2022-12-27T17:50:46.584Z,54.29
2022-12-27T17:53:31.455Z,53.69
2022-12-27T17:56:16.165Z,54.12
2022-12-27T17:59:00.917Z,54.05
2022-12-27T18:01:45.902Z,54.20
2022-12-27T18:04:31.045Z,54.19
2022-12-27T18:07:15.906Z,53.81
2022-12-27T18:10:00.746Z,52.76
2022-12-27T18:12:45.594Z,52.57
2022-12-27T18:15:30.496Z,52.56
2022-12-27T18:18:15.231Z,52.42
2022-12-27T18:20:59.944Z,52.87
2022-12-27T18:23:44.808Z,52.49
2022-12-27T18:26:29.527Z,52.57
2022-12-27T18:29:14.320Z,52.37
2022-12-27T18:31:59.112Z,52.38
2022-12-27T18:34:43.850Z,51.92
2022-12-27T18:37:28.579Z,52.17
2022-12-27T18:40:13.328Z,52.26
2022-12-27T18:42:58.221Z,51.79
2022-12-27T18:45:42.976Z,52.12
2022-12-27T18:48:27.866Z,52.04
2022-12-27T18:51:12.640Z,51.74
2022-12-27T18:53:57.347Z,52.00
2022-12-27T18:56:42.104Z,52.16
2022-12-27T18:59:26.759Z,52.07
2022-12-27T19:02:11.522Z,52.36
2022-12-27T19:04:56.736Z,53.04
2022-12-27T19:07:41.649Z,52.86
2022-12-27T19:10:26.411Z,53.20
2022-12-27T19:13:11.244Z,53.30
2022-12-27T19:15:55.986Z,52.90
2022-12-27T19:18:40.786Z,53.33
2022-12-27T19:21:25.396Z,53.60
2022-12-27T19:24:10.298Z,53.91
2022-12-27T19:26:55.044Z,54.17
2022-12-27T19:29:42.808Z,55.22
2022-12-27T19:32:27.770Z,56.24
2022-12-27T19:35:12.455Z,57.17
2022-12-27T19:37:57.237Z,56.58
2022-12-27T19:40:42.003Z,57.74
2022-12-27T19:43:26.961Z,57.47
2022-12-27T19:46:11.764Z,57.83
2022-12-27T19:49:31.644Z,57.26
2022-12-27T19:52:01.373Z,57.15
2022-12-27T19:54:46.115Z,57.07
2022-12-27T19:57:30.975Z,56.66
2022-12-27T20:00:15.760Z,56.69
2022-12-27T20:03:00.664Z,57.05
2022-12-27T20:06:11.429Z,57.04
2022-12-27T20:08:50.755Z,57.04
2022-12-27T20:11:35.643Z,56.44
2022-12-27T20:14:20.439Z,55.81
2022-12-27T20:17:05.167Z,55.02
2022-12-27T20:19:50.182Z,55.87
2022-12-27T20:22:34.829Z,56.56
2022-12-27T20:25:19.582Z,56.70
2022-12-27T20:28:04.245Z,57.34
2022-12-27T20:30:48.990Z,58.20
2022-12-27T20:33:33.650Z,58.67
2022-12-27T20:36:18.359Z,58.00
2022-12-27T20:39:03.110Z,58.14
2022-12-27T20:41:47.931Z,57.47
2022-12-27T20:44:32.868Z,57.35
2022-12-27T20:47:17.560Z,57.21
2022-12-27T20:50:02.363Z,56.77
2022-12-27T20:52:47.126Z,56.74
2022-12-27T20:55:31.997Z,57.13
2022-12-27T20:58:16.685Z,57.08
2022-12-27T21:01:01.513Z,56.30
2022-12-27T21:03:46.240Z,56.46
2022-12-27T21:06:31.447Z,56.17
2022-12-27T21:09:16.238Z,56.70
2022-12-27T21:12:00.904Z,55.97
2022-12-27T21:14:45.627Z,55.66
2022-12-27T21:17:30.430Z,55.72
2022-12-27T21:20:15.256Z,55.62
2022-12-27T21:22:59.937Z,55.98
2022-12-27T21:25:44.831Z,56.64
2022-12-27T21:28:29.581Z,56.02
2022-12-27T21:31:14.452Z,55.96
2022-12-27T21:33:59.534Z,55.80
2022-12-27T21:36:44.361Z,55.33
2022-12-27T21:39:29.057Z,55.10
2022-12-27T21:42:13.929Z,55.67
2022-12-27T21:44:58.737Z,55.21
2022-12-27T21:47:43.676Z,55.30
2022-12-27T21:50:33.847Z,55.83
2022-12-27T21:53:21.740Z,56.09
2022-12-27T21:56:06.824Z,57.04
2022-12-27T21:58:51.886Z,57.35
2022-12-27T22:01:50.551Z,57.14
2022-12-27T22:04:37.057Z,57.69
2022-12-27T22:07:21.865Z,57.59
2022-12-27T22:10:06.579Z,58.21
2022-12-27T22:12:51.467Z,58.67
2022-12-27T22:15:36.365Z,56.93
2022-12-27T22:18:21.194Z,56.74
2022-12-27T22:21:05.854Z,57.34
2022-12-27T22:23:50.838Z,57.08
2022-12-27T22:26:35.572Z,57.30
2022-12-27T22:29:20.471Z,57.53
2022-12-27T22:32:05.304Z,57.37
2022-12-27T22:34:50.069Z,56.99
2022-12-27T22:37:34.911Z,58.20
2022-12-27T22:40:30.814Z,58.41
2022-12-27T22:43:24.623Z,58.47
2022-12-27T22:46:09.441Z,58.67
2022-12-27T22:48:54.179Z,58.74
2022-12-27T22:51:39.069Z,58.57
2022-12-27T22:55:03.390Z,59.04
2022-12-27T22:57:28.803Z,58.63
2022-12-27T23:00:13.544Z,59.01
2022-12-27T23:02:58.327Z,59.53
2022-12-27T23:05:43.734Z,59.06
2022-12-27T23:08:28.288Z,58.07
2022-12-27T23:11:13.123Z,58.54
2022-12-27T23:13:57.918Z,58.34
2022-12-27T23:16:42.636Z,58.90
2022-12-27T23:19:27.256Z,58.88
2022-12-27T23:22:12.084Z,59.12
2022-12-27T23:24:56.907Z,60.02
2022-12-27T23:27:41.714Z,59.90
2022-12-27T23:30:26.458Z,59.67
2022-12-27T23:33:11.263Z,59.17
2022-12-27T23:35:56.112Z,59.34
2022-12-27T23:38:40.812Z,58.46
2022-12-27T23:41:25.644Z,58.84
2022-12-27T23:44:10.489Z,59.45
2022-12-27T23:46:55.353Z,58.64
2022-12-27T23:49:39.981Z,58.26
2022-12-27T23:52:24.809Z,58.36
2022-12-27T23:55:09.700Z,57.76
2022-12-27T23:57:54.488Z,57.45
